Киев (Жуляны)

Карта отелей и гостиниц, располагающихся рядом с аэропортом Киев (Жуляны) :

Киев (Жуляны)
Киев
Киев 50° 24' 6.48" N, 30° 27' 6.2388" E
Код аэродрома ИКАО
UKKK
Код аэродрома RU
УККК
Координаты
N50.40180° E030.45173°
Превышение над уровнем моря
179
Основная полоса
08R/26L
Курс магнитный
078,9/258,9
Длина основной ВПП
2110
Ширина основной ВПП
49
Покрытие основной ВПП
Твёрдое (цементобетон)
Освещение ВПП
Постоянное
Тип: 
Аэродром
Класс аэродрома: 
Международный
Принадлежность: 
ГА
Статус: 
Действующий
Сайт: 
www.airport.kiev.ua
Страна: 
Украина
Регион: 
Киев
Город: 
Киев
Дополнительная информация: 
АTIS (на рус.). Военный индекс: XKKK / ЬККК.
Погода: 

Авиационная погода в Киеве

Регион: 
Погода METAR: 
UKKK 221800Z 33004MPS 8000 -SN SCT012 BKN036 M04/M06 Q1012 NOSIG
Время наблюдения
2022-01-22T18:00:00Z
Температура C
-4.0
Точка росы
-6.0
Направление ветра
330
Скорость ветра (узлы)
8
Метео видимость
4.97
Облачность
SCT
BKN
Нижняя граница облачности (футы)
1200
3600
Явления погоды
-SN
Условия полета
MVFR
Аэропорт подробнее: 
SCT – разбросанная отдельная облачность; BKN – значительная (рассеянная, разорванная) облачность;
-SN – слабый снег;

Найти трансфер

С помощью этой формы Вы можете найти трансфер из аэропорта Киев (Жуляны) в город, аэропорт или вокзал:

Погода в аэропортах:

Авиационная погода в Толмачево

Регион: 
Погода METAR: 
UNNT 221800Z 15002MPS 4300 BR NSC M22/M25 Q1034 R25/810250 R16/810250 NOSIG RMK QFE765/1021
Время наблюдения
2022-01-22T18:00:00Z
Температура C
-22.0
Точка росы
-25.0
Направление ветра
150
Скорость ветра (узлы)
4
Метео видимость
2.67
Облачность
CLR
Нижняя граница облачности (футы)
Явления погоды
BR
Условия полета
IFR
Аэропорт подробнее: 
CLR — нет облаков ниже 3000 м
BR – дымка (видимость от 1 до 9 км);

Авиационная погода в Храброво

Регион: 
Погода METAR: 
UMKK 221800Z 35006MPS 8000 2300E -SHSN SCT008 BKN016CB 01/M02 Q1023 R24/690195 NOSIG RMK QFE766/1021
Время наблюдения
2022-01-22T18:00:00Z
Температура C
1.0
Точка росы
-2.0
Направление ветра
350
Скорость ветра (узлы)
12
Метео видимость
4.97
Облачность
SCT
BKN
Нижняя граница облачности (футы)
800
1600
Явления погоды
-SHSN
Условия полета
MVFR
Аэропорт подробнее: 
SCT – разбросанная отдельная облачность; BKN – значительная (рассеянная, разорванная) облачность;
-SHSN - слабый ливневой снег;

Авиационная погода в Ханты-Мансийске

Регион: 
Погода METAR: 
USHH 221800Z 16002MPS 9999 -SN BKN021 M12/M14 Q1028 R06/390037 TEMPO 3000 -SN BKN010
Время наблюдения
2022-01-22T18:00:00Z
Температура C
-12.0
Точка росы
-14.0
Направление ветра
160
Скорость ветра (узлы)
4
Метео видимость
6.21
Облачность
BKN
Нижняя граница облачности (футы)
2100
Явления погоды
-SN
Условия полета
MVFR
Аэропорт подробнее: 
BKN – значительная (рассеянная, разорванная) облачность;
-SN – слабый снег;

Авиационная погода в Самаре

Регион: 
Погода METAR: 
UWWW 221800Z 14005MPS 9000 -SN SCT033 M07/M10 Q1023 R15/420240 NOSIG RMK QFE755/1007
Время наблюдения
2022-01-22T18:00:00Z
Температура C
-7.0
Точка росы
-10.0
Направление ветра
140
Скорость ветра (узлы)
10
Метео видимость
5.59
Облачность
SCT
Нижняя граница облачности (футы)
3300
Явления погоды
-SN
Условия полета
VFR
Аэропорт подробнее: 
SCT – разбросанная отдельная облачность;
-SN – слабый снег;